Terminal Aerodrome Forecast
Issued by NWS

Home | Current Version | Previous Version | Text Only | Print | Product List | Glossary On
Versions: 1 2 3 4 5 6 7 8 9 10 11 12 13 14 15 16 17 18
000
FTUS41 KALY 031730
TAFPSF
TAF
KPSF 031730Z 0318/0418 27010G15KT P6SM SCT070
      TEMPO 0318/0322 BKN070
     FM040100 00000KT P6SM SKC
     FM041400 24008G14KT P6SM SCT060=

USA.gov is the U.S. government's official web portal to all federal, state and local government web resources and services.